SLTW weather

Tita Airport
San Rafael, Santa Cruz Department, Bolivia

Public forecast

Using degrees Celsius for public forecast. Weather courtesy of forecast.io.

METAR (pilot weather report)

Closest report is El Trompillo Airport, 72.1 nm (133.5 km) WNW. Retrieved 2019/03/25 23:00 UTC (38 minutes ago):

SLET 252300Z 22006KT 9999 FEW013 BKN023 FEW030CB OVC200 26/22 Q1011

TAF (pilot weather forecast)

Forecast is more than 6 hours old.

Closest forecast is El Trompillo Airport, 72.1 nm (133.5 km) WNW. Retrieved 2019/03/25 12:33 UTC (11 hours ago):

TAF COR SLET 251050Z 2512/2612 18006KT 9999 BKN017 BKN070 TX28/2520Z TN22/2610Z PROB30 TEMPO 2518/2521 12016KT 8000 SHRA BKN015 FEW030CB PROB40 TEMPO 2604/2608 7000 RA SCT006 BKN010 BKN070